createdAt,value
2019-03-02T00:01:45.805Z,8.36
2019-03-02T00:04:15.892Z,8.32
2019-03-02T00:06:50.989Z,8.18
2019-03-02T00:09:20.486Z,8.26
2019-03-02T00:11:52.892Z,8.36
2019-03-02T00:14:21.341Z,8.36
2019-03-02T00:16:50.808Z,8.25
2019-03-02T00:19:20.280Z,8.23
2019-03-02T00:21:49.822Z,8.30
2019-03-02T00:24:19.279Z,8.30
2019-03-02T00:26:50.282Z,8.31
2019-03-02T00:29:19.766Z,8.07
2019-03-02T00:31:49.250Z,8.25
2019-03-02T00:34:18.790Z,8.37
2019-03-02T00:37:07.641Z,7.73
2019-03-02T00:39:37.119Z,8.36
2019-03-02T00:42:06.609Z,8.27
2019-03-02T00:44:38.591Z,8.39
2019-03-02T00:47:07.318Z,8.36
2019-03-02T00:49:36.802Z,8.30
2019-03-02T00:52:06.387Z,8.19
2019-03-02T00:54:35.883Z,8.17
2019-03-02T00:57:05.382Z,8.17
2019-03-02T00:59:35.760Z,8.13
2019-03-02T01:02:05.899Z,8.07
2019-03-02T01:04:35.365Z,8.11
2019-03-02T01:07:05.532Z,8.03
2019-03-02T01:09:35.024Z,8.11
2019-03-02T01:12:05.862Z,8.24
2019-03-02T01:14:55.182Z,8.26
2019-03-02T01:17:26.831Z,8.19
2019-03-02T01:19:55.870Z,8.22
2019-03-02T01:22:44.686Z,8.18
2019-03-02T01:25:16.370Z,8.20
2019-03-02T01:27:46.142Z,8.20
2019-03-02T01:30:18.788Z,8.13
2019-03-02T01:32:52.342Z,8.13
2019-03-02T01:35:21.500Z,8.13
2019-03-02T01:37:50.901Z,8.07
2019-03-02T01:40:20.369Z,8.10
2019-03-02T01:43:09.217Z,8.08
2019-03-02T01:45:38.668Z,8.12
2019-03-02T01:48:08.519Z,8.09
2019-03-02T01:50:37.988Z,7.99
2019-03-02T01:53:09.893Z,8.02
2019-03-02T01:55:39.111Z,8.00
2019-03-02T01:58:28.303Z,8.03
2019-03-02T02:00:58.508Z,8.03
2019-03-02T02:03:27.969Z,8.09
2019-03-02T02:05:57.571Z,7.89
2019-03-02T02:08:29.873Z,7.98
2019-03-02T02:10:58.526Z,7.81
2019-03-02T02:13:28.133Z,7.96
2019-03-02T02:15:57.688Z,8.05
2019-03-02T02:18:27.658Z,8.10
2019-03-02T02:20:58.217Z,8.13
2019-03-02T02:23:27.716Z,8.06
2019-03-02T02:25:57.199Z,8.04
2019-03-02T02:28:29.192Z,7.94
2019-03-02T02:31:17.290Z,7.91
2019-03-02T02:33:46.774Z,7.96
2019-03-02T02:36:18.796Z,8.06
2019-03-02T02:38:53.892Z,8.02
2019-03-02T02:41:23.146Z,8.07
2019-03-02T02:43:54.381Z,8.06
2019-03-02T02:46:21.163Z,8.12
2019-03-02T02:48:50.821Z,8.10
2019-03-02T02:51:20.310Z,8.10
2019-03-02T02:53:49.858Z,8.00
2019-03-02T02:56:21.377Z,7.99
2019-03-02T02:59:03.472Z,7.96
2019-03-02T03:01:34.791Z,7.93
2019-03-02T03:04:04.142Z,7.93
2019-03-02T03:06:34.179Z,7.95
2019-03-02T03:09:09.883Z,7.92
2019-03-02T03:11:43.727Z,7.87
2019-03-02T03:14:09.181Z,7.68
2019-03-02T03:16:38.658Z,7.79
2019-03-02T03:19:08.150Z,7.93
2019-03-02T03:21:37.617Z,7.86
2019-03-02T03:24:07.229Z,7.87
2019-03-02T03:26:36.723Z,7.93
2019-03-02T03:29:09.580Z,7.99
2019-03-02T03:31:39.004Z,7.94
2019-03-02T03:34:08.491Z,7.95
2019-03-02T03:36:37.940Z,7.96
2019-03-02T03:39:09.177Z,7.91
2019-03-02T03:41:43.346Z,7.85
2019-03-02T03:44:10.349Z,7.93
2019-03-02T03:46:39.893Z,7.96
2019-03-02T03:49:09.580Z,7.92
2019-03-02T03:51:39.067Z,7.87
2019-03-02T03:54:08.925Z,7.79
2019-03-02T03:56:42.490Z,7.80
2019-03-02T03:59:14.332Z,7.74
2019-03-02T04:01:43.107Z,7.71
2019-03-02T04:04:12.742Z,7.85
2019-03-02T04:06:42.360Z,7.94
2019-03-02T04:09:11.847Z,7.89
2019-03-02T04:11:42.059Z,7.87
2019-03-02T04:14:12.550Z,7.91
2019-03-02T04:16:42.225Z,7.95
2019-03-02T04:19:16.533Z,7.90
2019-03-02T04:21:46.096Z,7.83
2019-03-02T04:24:15.751Z,7.83
2019-03-02T04:26:45.471Z,7.91
2019-03-02T04:29:15.056Z,7.81
2019-03-02T04:31:48.538Z,7.77
2019-03-02T04:34:20.608Z,7.91
2019-03-02T04:36:49.084Z,7.81
2019-03-02T04:39:18.753Z,7.77
2019-03-02T04:41:48.223Z,7.64
2019-03-02T04:44:17.693Z,7.74
2019-03-02T04:46:47.636Z,7.75
2019-03-02T04:49:18.409Z,7.81
2019-03-02T04:51:47.891Z,7.68
2019-03-02T04:54:21.925Z,7.69
2019-03-02T04:56:51.400Z,7.66
2019-03-02T04:59:22.008Z,7.71
2019-03-02T05:01:52.117Z,7.71
2019-03-02T05:04:21.579Z,7.49
2019-03-02T05:06:54.476Z,7.49
2019-03-02T05:09:22.504Z,7.57
2019-03-02T05:11:51.953Z,7.66
2019-03-02T05:14:21.459Z,7.64
2019-03-02T05:16:52.247Z,7.69
2019-03-02T05:19:21.752Z,7.69
2019-03-02T05:21:51.236Z,7.71
2019-03-02T05:24:20.763Z,7.73
2019-03-02T05:26:53.360Z,7.74
2019-03-02T05:29:21.424Z,7.53
2019-03-02T05:31:53.780Z,7.56
2019-03-02T05:34:23.291Z,7.50
2019-03-02T05:36:52.767Z,7.41
2019-03-02T05:39:22.309Z,7.40
2019-03-02T05:41:58.053Z,7.37
2019-03-02T05:44:27.574Z,7.32
2019-03-02T05:46:57.816Z,7.29
2019-03-02T05:49:28.285Z,7.36
2019-03-02T05:51:57.810Z,7.38
2019-03-02T05:54:28.770Z,7.19
2019-03-02T05:57:00.748Z,7.16
2019-03-02T05:59:29.582Z,7.08
2019-03-02T06:01:58.906Z,7.03
2019-03-02T06:04:28.416Z,7.08
2019-03-02T06:06:57.928Z,7.04
2019-03-02T06:09:27.413Z,6.97
2019-03-02T06:11:56.885Z,7.02
2019-03-02T06:14:26.668Z,6.93
2019-03-02T06:16:58.586Z,6.98
2019-03-02T06:19:28.217Z,7.01
2019-03-02T06:22:00.787Z,7.07
2019-03-02T06:24:33.245Z,7.08
2019-03-02T06:27:07.789Z,7.19
2019-03-02T06:29:36.815Z,7.23
2019-03-02T06:32:06.286Z,7.25
2019-03-02T06:34:35.837Z,7.29
2019-03-02T06:37:05.585Z,7.30
2019-03-02T06:39:35.061Z,7.36
2019-03-02T06:42:06.245Z,7.35
2019-03-02T06:44:35.778Z,7.38
2019-03-02T06:47:05.807Z,7.44
2019-03-02T06:49:36.388Z,7.38
2019-03-02T06:52:05.964Z,7.47
2019-03-02T06:54:35.480Z,7.43
2019-03-02T06:57:05.024Z,7.48
2019-03-02T06:59:39.379Z,7.38
2019-03-02T07:02:07.600Z,7.49
2019-03-02T07:04:40.100Z,7.42
2019-03-02T07:07:09.604Z,7.55
2019-03-02T07:09:41.765Z,7.44
2019-03-02T07:12:10.356Z,7.47
2019-03-02T07:14:39.873Z,7.52
2019-03-02T07:17:09.361Z,7.62
2019-03-02T07:19:40.442Z,7.68
2019-03-02T07:22:09.973Z,7.74
2019-03-02T07:24:39.427Z,7.65
2019-03-02T07:27:08.907Z,7.75
2019-03-02T07:29:57.988Z,7.79
2019-03-02T07:32:27.466Z,7.83
2019-03-02T07:34:56.974Z,7.82
2019-03-02T07:37:26.480Z,7.77
2019-03-02T07:39:55.985Z,7.73
2019-03-02T07:42:25.455Z,7.92
2019-03-02T07:44:58.445Z,7.97
2019-03-02T07:47:26.176Z,8.05
2019-03-02T07:49:55.639Z,8.01
2019-03-02T07:52:25.181Z,8.06
2019-03-02T07:54:58.528Z,8.09
2019-03-02T07:57:27.373Z,7.94
2019-03-02T07:59:58.102Z,8.07
2019-03-02T08:02:29.524Z,8.10
2019-03-02T08:05:00.101Z,8.01
2019-03-02T08:07:29.840Z,8.07
2019-03-02T08:10:02.129Z,8.07
2019-03-02T08:12:32.072Z,8.32
2019-03-02T08:15:01.558Z,8.30
2019-03-02T08:17:31.030Z,8.18
2019-03-02T08:20:00.534Z,8.22
2019-03-02T08:22:30.079Z,8.23
2019-03-02T08:24:59.534Z,8.18
2019-03-02T08:27:30.814Z,8.25
2019-03-02T08:30:00.262Z,8.32
2019-03-02T08:32:29.699Z,8.43
2019-03-02T08:34:59.165Z,8.50
2019-03-02T08:37:29.829Z,8.48
2019-03-02T08:40:01.838Z,8.52
2019-03-02T08:42:31.099Z,8.35
2019-03-02T08:45:00.634Z,8.48
2019-03-02T08:47:30.148Z,8.37
2019-03-02T08:49:59.653Z,8.48
2019-03-02T08:52:29.245Z,8.59
2019-03-02T08:54:58.690Z,8.53
2019-03-02T08:57:28.167Z,8.63
2019-03-02T08:59:58.828Z,8.80
2019-03-02T09:02:28.471Z,8.75
2019-03-02T09:05:17.369Z,8.85
2019-03-02T09:08:06.126Z,8.40
2019-03-02T09:10:37.062Z,9.08
2019-03-02T09:13:06.694Z,9.03
2019-03-02T09:15:36.176Z,9.16
2019-03-02T09:18:24.992Z,9.29
2019-03-02T09:20:54.458Z,9.31
2019-03-02T09:23:24.102Z,9.47
2019-03-02T09:25:53.658Z,9.62
2019-03-02T09:28:23.394Z,9.62
2019-03-02T09:30:52.857Z,9.54
2019-03-02T09:33:24.734Z,9.72
2019-03-02T09:35:54.876Z,9.78
2019-03-02T09:38:44.144Z,10.00
2019-03-02T09:41:13.809Z,10.04
2019-03-02T09:43:43.266Z,10.29
2019-03-02T09:46:12.800Z,10.24
2019-03-02T09:48:42.299Z,10.31
2019-03-02T09:51:11.873Z,10.68
2019-03-02T09:53:43.633Z,10.48
2019-03-02T09:56:13.503Z,10.64
2019-03-02T09:58:42.983Z,10.48
2019-03-02T10:01:12.518Z,10.57
2019-03-02T10:03:41.993Z,10.58
2019-03-02T10:06:11.450Z,10.70
2019-03-02T10:08:42.453Z,10.60
2019-03-02T10:11:12.297Z,10.82
2019-03-02T10:13:41.776Z,10.91
2019-03-02T10:16:11.587Z,10.88
2019-03-02T10:18:41.144Z,10.90
2019-03-02T10:21:10.650Z,10.70
2019-03-02T10:23:41.956Z,10.84
2019-03-02T10:26:11.635Z,10.79
2019-03-02T10:28:41.107Z,10.87
2019-03-02T10:31:10.777Z,10.82
2019-03-02T10:33:40.255Z,10.76
2019-03-02T10:36:09.760Z,11.22
2019-03-02T10:38:39.608Z,11.47
2019-03-02T10:41:09.079Z,11.69
2019-03-02T10:43:38.580Z,11.49
2019-03-02T10:46:08.603Z,11.25
2019-03-02T10:48:38.104Z,10.92
2019-03-02T10:51:07.607Z,10.69
2019-03-02T10:53:37.151Z,10.80
2019-03-02T10:56:06.704Z,10.76
2019-03-02T10:58:38.691Z,11.06
2019-03-02T11:01:08.633Z,11.24
2019-03-02T11:03:38.326Z,10.81
2019-03-02T11:06:09.408Z,11.21
2019-03-02T11:08:40.529Z,11.61
2019-03-02T11:11:17.633Z,12.15
2019-03-02T11:13:51.800Z,13.05
2019-03-02T11:16:27.773Z,13.41
2019-03-02T11:18:58.912Z,13.14
2019-03-02T11:21:30.983Z,13.17
2019-03-02T11:24:02.860Z,12.81
2019-03-02T11:26:34.002Z,12.70
2019-03-02T11:29:05.325Z,12.74
2019-03-02T11:31:36.799Z,12.71
2019-03-02T11:34:11.485Z,12.82
2019-03-02T11:39:29.783Z,13.31
2019-03-02T11:42:00.856Z,13.23
2019-03-02T11:44:31.978Z,13.04
2019-03-02T11:47:03.180Z,13.14
2019-03-02T11:49:34.804Z,12.96
2019-03-02T11:52:07.190Z,12.94
2019-03-02T11:54:38.332Z,13.06
2019-03-02T11:57:09.436Z,12.72
2019-03-02T11:59:42.069Z,13.20
2019-03-02T12:02:15.931Z,13.30
2019-03-02T12:04:49.024Z,13.77
2019-03-02T12:07:41.838Z,13.80
2019-03-02T12:10:12.375Z,14.08
2019-03-02T12:12:43.455Z,13.78
2019-03-02T12:15:33.939Z,15.19
2019-03-02T12:18:05.086Z,15.37
2019-03-02T12:20:55.547Z,15.38
2019-03-02T12:23:26.670Z,15.01
2019-03-02T12:25:58.224Z,14.75
2019-03-02T12:28:33.049Z,14.97
2019-03-02T12:31:02.180Z,14.82
2019-03-02T12:33:33.312Z,14.68
2019-03-02T12:36:04.493Z,14.15
2019-03-02T12:38:35.587Z,13.73
2019-03-02T12:41:07.068Z,13.43
2019-03-02T12:43:40.590Z,13.83
2019-03-02T12:46:12.914Z,13.64
2019-03-02T12:48:43.841Z,13.73
2019-03-02T12:51:14.978Z,13.49
2019-03-02T12:53:46.094Z,12.93
2019-03-02T12:56:23.678Z,12.98
2019-03-02T12:58:55.266Z,12.96
2019-03-02T13:01:27.642Z,12.89
2019-03-02T13:03:58.786Z,12.95
2019-03-02T13:06:32.149Z,12.88
2019-03-02T13:09:03.227Z,13.23
2019-03-02T13:11:44.709Z,13.00
2019-03-02T13:14:15.783Z,13.48
2019-03-02T13:19:33.598Z,13.81
2019-03-02T13:22:06.378Z,14.33
2019-03-02T13:24:37.530Z,14.99
2019-03-02T13:27:08.871Z,14.99
2019-03-02T13:29:40.038Z,15.16
2019-03-02T13:32:11.164Z,15.14
2019-03-02T13:34:43.789Z,14.62
2019-03-02T13:37:34.427Z,14.16
2019-03-02T13:40:26.360Z,14.01
2019-03-02T13:43:04.291Z,13.53
2019-03-02T13:45:30.549Z,13.46
2019-03-02T13:48:02.011Z,13.56
2019-03-02T13:50:34.656Z,13.50
2019-03-02T13:53:25.072Z,13.27
2019-03-02T13:55:56.211Z,13.15
2019-03-02T13:58:27.323Z,13.07
2019-03-02T14:00:58.387Z,13.11
2019-03-02T14:03:31.790Z,12.88
2019-03-02T14:06:02.920Z,12.76
2019-03-02T14:08:34.225Z,13.10
2019-03-02T14:11:05.341Z,13.18
2019-03-02T14:13:36.432Z,13.39
2019-03-02T14:16:07.510Z,13.36
2019-03-02T14:18:38.616Z,13.48
2019-03-02T14:21:09.696Z,13.25
2019-03-02T14:23:40.822Z,13.16
2019-03-02T14:26:11.965Z,13.31
2019-03-02T14:28:43.094Z,13.15
2019-03-02T14:31:20.121Z,13.02
2019-03-02T14:33:47.392Z,12.91
2019-03-02T14:36:18.500Z,13.09
2019-03-02T14:38:49.628Z,13.20
2019-03-02T14:41:24.345Z,13.16
2019-03-02T14:43:56.919Z,12.88
2019-03-02T14:46:26.438Z,12.66
2019-03-02T14:48:57.579Z,12.64
2019-03-02T14:51:28.699Z,12.57
2019-03-02T14:53:59.815Z,12.59
2019-03-02T14:56:30.987Z,12.75
2019-03-02T14:59:02.063Z,12.77
2019-03-02T15:01:36.080Z,12.50
2019-03-02T15:04:07.593Z,12.47
2019-03-02T15:06:40.484Z,12.50
2019-03-02T15:09:13.302Z,12.48
2019-03-02T15:11:44.442Z,12.59
2019-03-02T15:14:15.570Z,12.42
2019-03-02T15:16:46.738Z,12.71
2019-03-02T15:19:17.801Z,12.34
2019-03-02T15:21:48.914Z,12.26
2019-03-02T15:24:26.182Z,12.29
2019-03-02T15:26:57.856Z,11.84
2019-03-02T15:29:28.921Z,11.76
2019-03-02T15:32:00.075Z,11.75
2019-03-02T15:34:31.190Z,11.85
2019-03-02T15:37:02.426Z,12.02
2019-03-02T15:39:33.537Z,11.94
2019-03-02T15:42:04.654Z,12.13
2019-03-02T15:44:36.090Z,12.11
2019-03-02T15:47:10.100Z,11.82
2019-03-02T15:49:41.560Z,11.99
2019-03-02T15:52:13.143Z,12.01
2019-03-02T15:54:44.219Z,12.21
2019-03-02T15:57:15.665Z,12.17
2019-03-02T15:59:46.802Z,11.94
2019-03-02T16:02:18.150Z,11.96
2019-03-02T16:04:49.221Z,11.85
2019-03-02T16:07:20.519Z,11.78
2019-03-02T16:09:52.067Z,11.57
2019-03-02T16:12:23.254Z,11.63
2019-03-02T16:14:54.667Z,11.49
2019-03-02T16:17:25.640Z,11.48
2019-03-02T16:19:56.809Z,11.16
2019-03-02T16:22:34.244Z,11.21
2019-03-02T16:25:05.976Z,11.11
2019-03-02T16:27:37.080Z,11.08
2019-03-02T16:30:28.189Z,10.79
2019-03-02T16:33:01.090Z,10.59
2019-03-02T16:35:39.964Z,10.61
2019-03-02T16:38:05.202Z,10.65
2019-03-02T16:40:36.352Z,10.43
2019-03-02T16:43:08.047Z,10.48
2019-03-02T16:45:46.372Z,10.62
2019-03-02T16:48:17.813Z,10.44
2019-03-02T16:50:50.031Z,10.50
2019-03-02T16:53:22.650Z,10.58
2019-03-02T16:55:54.011Z,10.44
2019-03-02T16:58:25.093Z,10.43
2019-03-02T17:00:56.373Z,10.23
2019-03-02T17:03:29.155Z,10.33
2019-03-02T17:06:00.232Z,10.40
2019-03-02T17:08:35.350Z,10.22
2019-03-02T17:11:04.809Z,10.25
2019-03-02T17:13:36.011Z,10.19
2019-03-02T17:16:07.490Z,10.03
2019-03-02T17:18:40.253Z,9.88
2019-03-02T17:21:16.520Z,9.86
2019-03-02T17:23:45.840Z,9.67
2019-03-02T17:26:36.276Z,9.70
2019-03-02T17:29:08.058Z,9.74
2019-03-02T17:31:42.880Z,9.58
2019-03-02T17:34:14.409Z,9.65
2019-03-02T17:36:45.485Z,9.61
2019-03-02T17:39:16.688Z,9.60
2019-03-02T17:41:47.805Z,9.59
2019-03-02T17:44:22.142Z,9.65
2019-03-02T17:46:51.829Z,9.73
2019-03-02T17:49:31.580Z,9.71
2019-03-02T17:52:01.797Z,9.73
2019-03-02T17:54:42.337Z,9.69
2019-03-02T17:57:13.990Z,9.68
2019-03-02T17:59:47.681Z,9.72
2019-03-02T18:02:18.796Z,9.70
2019-03-02T18:04:55.824Z,9.68
2019-03-02T18:07:26.930Z,9.71
2019-03-02T18:10:01.184Z,9.67
2019-03-02T18:12:31.708Z,9.70
2019-03-02T18:15:03.201Z,9.76
2019-03-02T18:17:41.732Z,9.78
2019-03-02T18:20:15.943Z,9.80
2019-03-02T18:22:47.751Z,9.85
2019-03-02T18:25:17.364Z,9.73
2019-03-02T18:27:46.869Z,9.63
2019-03-02T18:30:19.262Z,9.61
2019-03-02T18:32:56.429Z,9.53
2019-03-02T18:35:25.971Z,9.45
2019-03-02T18:37:55.453Z,9.47
2019-03-02T18:40:27.969Z,9.40
2019-03-02T18:42:57.440Z,9.41
2019-03-02T18:45:27.084Z,9.35
2019-03-02T18:47:59.256Z,9.36
2019-03-02T18:50:32.374Z,9.38
2019-03-02T18:53:03.374Z,9.38
2019-03-02T18:55:33.356Z,9.42
2019-03-02T18:58:02.904Z,9.42
2019-03-02T19:00:34.169Z,9.38
2019-03-02T19:03:03.907Z,9.41
2019-03-02T19:05:35.154Z,9.33
2019-03-02T19:08:04.979Z,9.35
2019-03-02T19:10:53.777Z,9.47
2019-03-02T19:13:23.430Z,9.46
2019-03-02T19:15:54.037Z,9.35
2019-03-02T19:18:23.713Z,9.41
2019-03-02T19:20:53.616Z,9.38
2019-03-02T19:23:23.077Z,9.47
2019-03-02T19:25:52.626Z,9.42
2019-03-02T19:28:42.328Z,9.40
2019-03-02T19:31:11.793Z,9.40
2019-03-02T19:33:41.265Z,9.31
2019-03-02T19:36:10.768Z,9.31
2019-03-02T19:38:40.248Z,9.35
2019-03-02T19:41:09.730Z,9.37
2019-03-02T19:43:39.211Z,9.42
2019-03-02T19:46:10.178Z,9.49
2019-03-02T19:48:39.632Z,9.46
2019-03-02T19:51:09.448Z,9.41
2019-03-02T19:53:38.912Z,9.39
2019-03-02T19:56:08.424Z,9.39
2019-03-02T19:58:57.191Z,9.47
2019-03-02T20:01:26.681Z,9.51
2019-03-02T20:03:56.161Z,9.54
2019-03-02T20:06:25.860Z,9.56
2019-03-02T20:09:14.617Z,9.62
2019-03-02T20:11:44.114Z,9.46
2019-03-02T20:14:13.973Z,9.54
2019-03-02T20:16:43.443Z,9.59
2019-03-02T20:19:13.351Z,9.50
2019-03-02T20:22:02.124Z,9.47
2019-03-02T20:24:31.629Z,9.53
2019-03-02T20:27:01.087Z,9.56
2019-03-02T20:29:30.561Z,9.55
2019-03-02T20:32:00.068Z,9.53
2019-03-02T20:34:29.561Z,9.62
2019-03-02T20:36:59.033Z,9.66
2019-03-02T20:39:28.607Z,9.65
2019-03-02T20:41:58.064Z,9.68
2019-03-02T20:44:27.553Z,9.76
2019-03-02T20:46:57.024Z,9.59
2019-03-02T20:49:26.483Z,9.70
2019-03-02T20:51:55.965Z,9.69
2019-03-02T20:54:25.472Z,9.71
2019-03-02T20:56:54.955Z,9.75
2019-03-02T20:59:24.435Z,9.68
2019-03-02T21:01:53.950Z,9.75
2019-03-02T21:04:23.498Z,9.87
2019-03-02T21:06:52.961Z,9.75
2019-03-02T21:09:28.136Z,9.80
2019-03-02T21:11:59.129Z,9.84
2019-03-02T21:14:28.984Z,9.87
2019-03-02T21:16:58.465Z,9.89
2019-03-02T21:19:29.444Z,9.94
2019-03-02T21:21:59.396Z,9.85
2019-03-02T21:24:28.929Z,9.85
2019-03-02T21:26:58.413Z,9.73
2019-03-02T21:29:27.968Z,9.73
2019-03-02T21:31:57.466Z,9.73
2019-03-02T21:34:26.948Z,9.69
2019-03-02T21:36:56.429Z,9.67
2019-03-02T21:39:25.936Z,9.74
2019-03-02T21:41:56.929Z,9.79
2019-03-02T21:44:26.423Z,9.94
2019-03-02T21:46:55.892Z,9.93
2019-03-02T21:49:25.378Z,9.84
2019-03-02T21:51:54.832Z,9.89
2019-03-02T21:54:24.322Z,9.78
2019-03-02T21:56:53.821Z,9.83
2019-03-02T21:59:23.308Z,9.85
2019-03-02T22:01:52.813Z,9.77
2019-03-02T22:04:22.302Z,9.82
2019-03-02T22:06:51.760Z,9.80
2019-03-02T22:09:21.289Z,9.94
2019-03-02T22:11:50.749Z,9.98
2019-03-02T22:14:20.246Z,10.00
2019-03-02T22:16:50.831Z,9.96
2019-03-02T22:19:20.325Z,9.97
2019-03-02T22:21:49.781Z,9.93
2019-03-02T22:24:19.284Z,9.87
2019-03-02T22:26:48.765Z,9.94
2019-03-02T22:29:18.265Z,9.86
2019-03-02T22:31:47.763Z,9.89
2019-03-02T22:34:17.241Z,9.89
2019-03-02T22:36:46.720Z,9.88
2019-03-02T22:39:16.224Z,9.71
2019-03-02T22:41:45.715Z,9.78
2019-03-02T22:44:15.176Z,9.76
2019-03-02T22:46:44.704Z,9.68
2019-03-02T22:49:16.898Z,9.70
2019-03-02T22:51:46.369Z,9.71
2019-03-02T22:54:15.909Z,9.61
2019-03-02T22:56:45.375Z,9.64
2019-03-02T22:59:17.787Z,9.58
2019-03-02T23:01:51.807Z,9.49
2019-03-02T23:04:21.307Z,9.48
2019-03-02T23:06:50.848Z,9.39
2019-03-02T23:09:20.357Z,9.51
2019-03-02T23:11:49.822Z,9.45
2019-03-02T23:14:25.876Z,9.38
2019-03-02T23:16:55.422Z,9.44
2019-03-02T23:19:24.886Z,9.39
2019-03-02T23:21:54.364Z,9.33
2019-03-02T23:24:23.831Z,9.41
2019-03-02T23:26:53.300Z,9.43
2019-03-02T23:29:22.811Z,9.44
2019-03-02T23:31:52.374Z,9.40
2019-03-02T23:34:21.848Z,9.42
2019-03-02T23:36:51.320Z,9.40
2019-03-02T23:39:20.816Z,9.34
2019-03-02T23:41:50.285Z,9.34
2019-03-02T23:44:19.766Z,9.43
2019-03-02T23:46:49.248Z,9.40
2019-03-02T23:49:18.738Z,9.44
2019-03-02T23:51:48.257Z,9.42
2019-03-02T23:54:17.743Z,9.56
2019-03-02T23:56:48.747Z,9.52
2019-03-02T23:59:18.229Z,9.49
